SWR167L KSFO-LSZH
Flight info
| Callsign | SWR167L |
|---|---|
| Flight time | N/A |
| Altitude | 37000 |
| Route | SNTNA2 DEDHD DCT LKV DCT MLP J540 YQL Q896 BORIX DCT 55N103W 59N095W 62N085W/N0486F350 65N070W/M084F350 DCT EPMAN DCT 66N050W 66N040W 65N030W 63N020W/M084F370 DCT ATSIX/N0481F370 DCT AKIVO DCT NEXUS DCT TOPPA DCT SUTAL DCT GTQ DCT BAMEV DCT BLM |
| Aircraft | B77W/H-SDE1E2E3FGHIJ2J3J4J5M1RWXY/LB1D1 |
Departure
| Time | N/A |
|---|---|
| Airport | San Francisco International Airport (KSFO) |
Arrival
| Time | 2026-05-04 09:34 |
|---|---|
| Airport | Zürich Airport (LSZH) |
| Time | Latitude | Longitude | Altitude | Speed | Heading |
|---|---|---|---|---|---|
| 2026-05-04 09:02 | 48.82923 | 6.80985 | 37016 ft | 450 kts | 162° |
| 2026-05-04 09:02 | 48.80027 | 6.82691 | 37022 ft | 450 kts | 163° |
| 2026-05-04 09:03 | 48.74195 | 6.86123 | 37034 ft | 449 kts | 163° |
| 2026-05-04 09:03 | 48.68429 | 6.89512 | 37037 ft | 450 kts | 162° |
| 2026-05-04 09:04 | 48.62624 | 6.92917 | 37039 ft | 449 kts | 162° |
| 2026-05-04 09:04 | 48.56821 | 6.96314 | 37036 ft | 449 kts | 162° |
| 2026-05-04 09:05 | 48.51996 | 6.99132 | 37035 ft | 448 kts | 163° |
| 2026-05-04 09:05 | 48.48132 | 7.01387 | 36860 ft | 445 kts | 162° |
| 2026-05-04 09:05 | 48.45303 | 7.03034 | 36253 ft | 445 kts | 163° |
| 2026-05-04 09:05 | 48.42429 | 7.04704 | 35532 ft | 448 kts | 163° |
| 2026-05-04 09:06 | 48.39658 | 7.06313 | 34792 ft | 451 kts | 163° |
| 2026-05-04 09:07 | 48.19203 | 7.18142 | 29724 ft | 438 kts | 162° |
| 2026-05-04 09:08 | 48.16371 | 7.19772 | 29224 ft | 432 kts | 162° |
| 2026-05-04 09:08 | 48.13531 | 7.21401 | 28722 ft | 444 kts | 162° |
| 2026-05-04 09:08 | 48.10626 | 7.23065 | 28172 ft | 450 kts | 162° |
| 2026-05-04 09:08 | 48.07752 | 7.24714 | 27637 ft | 445 kts | 162° |
| 2026-05-04 09:09 | 48.04849 | 7.26377 | 27111 ft | 439 kts | 162° |
| 2026-05-04 09:09 | 48.02086 | 7.27958 | 26585 ft | 434 kts | 161° |
| 2026-05-04 09:09 | 48.00211 | 7.29030 | 26236 ft | 432 kts | 161° |
| 2026-05-04 09:09 | 47.96496 | 7.31150 | 25541 ft | 429 kts | 161° |
| 2026-05-04 09:10 | 47.93722 | 7.32730 | 25006 ft | 426 kts | 161° |
| 2026-05-04 09:10 | 47.90978 | 7.34292 | 24470 ft | 423 kts | 161° |
| 2026-05-04 09:10 | 47.88270 | 7.35832 | 23942 ft | 419 kts | 161° |
| 2026-05-04 09:10 | 47.85527 | 7.37390 | 23404 ft | 416 kts | 161° |
| 2026-05-04 09:11 | 47.82838 | 7.38915 | 22885 ft | 413 kts | 161° |
| 2026-05-04 09:11 | 47.80215 | 7.40402 | 22362 ft | 410 kts | 161° |
| 2026-05-04 09:11 | 47.77557 | 7.41907 | 21826 ft | 407 kts | 161° |
| 2026-05-04 09:11 | 47.74913 | 7.43403 | 21284 ft | 404 kts | 161° |
| 2026-05-04 09:12 | 47.72313 | 7.44872 | 20767 ft | 401 kts | 161° |
| 2026-05-04 09:12 | 47.69724 | 7.46340 | 20231 ft | 398 kts | 159° |
| 2026-05-04 09:14 | 47.58894 | 7.68858 | 16331 ft | 396 kts | 111° |
| 2026-05-04 09:14 | 47.57988 | 7.72677 | 15773 ft | 393 kts | 111° |
| 2026-05-04 09:14 | 47.57110 | 7.76383 | 15228 ft | 390 kts | 111° |
| 2026-05-04 09:14 | 47.56225 | 7.80124 | 14770 ft | 384 kts | 111° |
| 2026-05-04 09:15 | 47.55342 | 7.83853 | 14309 ft | 379 kts | 111° |
| 2026-05-04 09:15 | 47.54481 | 7.87489 | 13649 ft | 380 kts | 111° |
| 2026-05-04 09:15 | 47.53611 | 7.91154 | 13053 ft | 378 kts | 111° |
| 2026-05-04 09:15 | 47.52737 | 7.94836 | 12493 ft | 375 kts | 111° |
| 2026-05-04 09:17 | 47.47870 | 8.21541 | 9937 ft | 295 kts | 72° |
| 2026-05-04 09:18 | 47.48869 | 8.24132 | 9486 ft | 293 kts | 48° |
| 2026-05-04 09:18 | 47.50543 | 8.25825 | 9060 ft | 299 kts | 22° |
| 2026-05-04 09:18 | 47.52583 | 8.26307 | 8634 ft | 304 kts | 356° |
| 2026-05-04 09:18 | 47.54597 | 8.25432 | 8215 ft | 300 kts | 328° |
| 2026-05-04 09:19 | 47.56147 | 8.23455 | 7940 ft | 287 kts | 313° |
| 2026-05-04 09:19 | 47.57505 | 8.21336 | 7672 ft | 284 kts | 313° |
| 2026-05-04 09:19 | 47.58846 | 8.19235 | 7326 ft | 284 kts | 313° |
| 2026-05-04 09:19 | 47.60200 | 8.17095 | 6974 ft | 284 kts | 313° |
| 2026-05-04 09:20 | 47.61544 | 8.14958 | 6645 ft | 283 kts | 313° |
| 2026-05-04 09:20 | 47.62867 | 8.12834 | 6391 ft | 279 kts | 313° |
| 2026-05-04 09:20 | 47.64172 | 8.10729 | 6230 ft | 271 kts | 313° |
| 2026-05-04 09:20 | 47.65429 | 8.08695 | 6139 ft | 266 kts | 313° |
| 2026-05-04 09:21 | 47.66671 | 8.06684 | 6081 ft | 267 kts | 313° |
| 2026-05-04 09:21 | 47.67911 | 8.04678 | 6041 ft | 266 kts | 313° |
| 2026-05-04 09:21 | 47.69173 | 8.02634 | 6011 ft | 265 kts | 313° |
| 2026-05-04 09:21 | 47.70399 | 8.00649 | 5978 ft | 264 kts | 313° |
| 2026-05-04 09:22 | 47.71643 | 7.98629 | 5973 ft | 264 kts | 313° |
| 2026-05-04 09:22 | 47.72891 | 7.96600 | 5973 ft | 265 kts | 313° |
| 2026-05-04 09:22 | 47.74126 | 7.94589 | 5972 ft | 265 kts | 313° |
| 2026-05-04 09:22 | 47.75433 | 7.92644 | 5955 ft | 263 kts | 326° |
| 2026-05-04 09:23 | 47.77088 | 7.91609 | 5949 ft | 261 kts | 353° |
| 2026-05-04 09:23 | 47.78885 | 7.91797 | 5947 ft | 257 kts | 20° |
| 2026-05-04 09:23 | 47.80388 | 7.93116 | 5949 ft | 255 kts | 45° |
| 2026-05-04 09:23 | 47.81360 | 7.95321 | 5946 ft | 254 kts | 71° |
| 2026-05-04 09:25 | 47.75810 | 8.11084 | 5972 ft | 248 kts | 124° |
| 2026-05-04 09:25 | 47.74782 | 8.13174 | 5975 ft | 248 kts | 124° |
| 2026-05-04 09:26 | 47.73772 | 8.15228 | 5968 ft | 248 kts | 124° |
| 2026-05-04 09:26 | 47.73093 | 8.16606 | 5961 ft | 247 kts | 124° |
| 2026-05-04 09:26 | 47.71746 | 8.19336 | 5953 ft | 247 kts | 124° |
| 2026-05-04 09:26 | 47.70722 | 8.21407 | 5956 ft | 246 kts | 124° |
| 2026-05-04 09:27 | 47.69702 | 8.23465 | 5955 ft | 246 kts | 124° |
| 2026-05-04 09:27 | 47.68652 | 8.25452 | 5951 ft | 246 kts | 131° |
| 2026-05-04 09:27 | 47.67453 | 8.27206 | 5954 ft | 240 kts | 134° |
| 2026-05-04 09:27 | 47.66266 | 8.28876 | 5954 ft | 225 kts | 134° |
| 2026-05-04 09:28 | 47.65163 | 8.30419 | 5848 ft | 221 kts | 135° |
| 2026-05-04 09:28 | 47.64035 | 8.31983 | 5537 ft | 219 kts | 135° |
| 2026-05-04 09:28 | 47.62949 | 8.33479 | 5284 ft | 214 kts | 135° |
| 2026-05-04 09:28 | 47.61857 | 8.34975 | 4999 ft | 210 kts | 135° |
| 2026-05-04 09:29 | 47.60799 | 8.36422 | 4733 ft | 204 kts | 135° |
| 2026-05-04 09:29 | 47.59781 | 8.37813 | 4475 ft | 199 kts | 135° |
| 2026-05-04 09:29 | 47.58779 | 8.39183 | 4219 ft | 193 kts | 135° |
| 2026-05-04 09:29 | 47.57808 | 8.40511 | 3971 ft | 188 kts | 135° |
| 2026-05-04 09:30 | 47.56864 | 8.41803 | 3752 ft | 181 kts | 134° |
| 2026-05-04 09:30 | 47.55962 | 8.43037 | 3509 ft | 169 kts | 134° |
| 2026-05-04 09:30 | 47.55125 | 8.44183 | 3290 ft | 163 kts | 134° |
| 2026-05-04 09:30 | 47.54299 | 8.45310 | 3084 ft | 160 kts | 134° |
| 2026-05-04 09:31 | 47.53480 | 8.46430 | 2880 ft | 161 kts | 135° |
| 2026-05-04 09:31 | 47.52663 | 8.47545 | 2651 ft | 160 kts | 135° |
| 2026-05-04 09:31 | 47.51861 | 8.48640 | 2424 ft | 159 kts | 135° |
| 2026-05-04 09:31 | 47.51041 | 8.49757 | 2200 ft | 158 kts | 135° |
| 2026-05-04 09:32 | 47.50249 | 8.50835 | 1985 ft | 157 kts | 135° |
| 2026-05-04 09:32 | 47.49457 | 8.51915 | 1764 ft | 156 kts | 136° |
| 2026-05-04 09:34 | 47.46253 | 8.55970 | 1402 ft | 5 kts | 218° |
| 2026-05-04 09:34 | 47.46233 | 8.55917 | 1401 ft | 7 kts | 259° |
| 2026-05-04 09:34 | 47.46233 | 8.55822 | 1399 ft | 11 kts | 273° |
| 2026-05-04 09:34 | 47.46241 | 8.55701 | 1396 ft | 9 kts | 276° |
| 2026-05-04 09:35 | 47.46246 | 8.55629 | 1396 ft | 2 kts | 274° |
| 2026-05-04 09:35 | 47.46246 | 8.55611 | 1396 ft | 0 kts | 251° |
| 2026-05-04 09:35 | 47.46245 | 8.55609 | 1396 ft | 0 kts | 243° |
| 2026-05-04 09:35 | 47.46241 | 8.55602 | 1396 ft | 1 kts | 224° |
| 2026-05-04 09:37 | 47.46176 | 8.55588 | 1396 ft | 0 kts | 185° |